sensor_id;sensor_type;location;lat;lon;timestamp;temperature;humidity
11304;DHT22;5707;49.588;12.148;2023-08-08T00:02:12;9.10;99.90
11304;DHT22;5707;49.588;12.148;2023-08-08T00:04:38;9.10;99.90
11304;DHT22;5707;49.588;12.148;2023-08-08T00:07:03;9.10;99.90
11304;DHT22;5707;49.588;12.148;2023-08-08T00:09:29;9.10;99.90
11304;DHT22;5707;49.588;12.148;2023-08-08T00:11:55;9.10;99.90
11304;DHT22;5707;49.588;12.148;2023-08-08T00:14:22;9.00;99.90
11304;DHT22;5707;49.588;12.148;2023-08-08T00:16:48;8.90;99.90
11304;DHT22;5707;49.588;12.148;2023-08-08T00:19:13;8.90;99.90
11304;DHT22;5707;49.588;12.148;2023-08-08T00:21:39;8.80;99.90
11304;DHT22;5707;49.588;12.148;2023-08-08T00:24:05;8.70;99.90
11304;DHT22;5707;49.588;12.148;2023-08-08T00:26:30;8.60;99.90
11304;DHT22;5707;49.588;12.148;2023-08-08T00:28:56;8.70;99.90
11304;DHT22;5707;49.588;12.148;2023-08-08T00:31:21;8.70;99.90
11304;DHT22;5707;49.588;12.148;2023-08-08T00:33:47;8.80;99.90
11304;DHT22;5707;49.588;12.148;2023-08-08T00:36:12;8.80;99.90
11304;DHT22;5707;49.588;12.148;2023-08-08T00:38:38;9.00;99.90
11304;DHT22;5707;49.588;12.148;2023-08-08T00:41:03;9.10;99.90
11304;DHT22;5707;49.588;12.148;2023-08-08T00:43:30;9.20;99.90
11304;DHT22;5707;49.588;12.148;2023-08-08T00:45:56;9.30;99.90
11304;DHT22;5707;49.588;12.148;2023-08-08T00:48:22;9.40;99.90
11304;DHT22;5707;49.588;12.148;2023-08-08T00:50:48;9.50;99.90
11304;DHT22;5707;49.588;12.148;2023-08-08T00:53:15;9.60;99.90
11304;DHT22;5707;49.588;12.148;2023-08-08T00:55:41;9.70;99.90
11304;DHT22;5707;49.588;12.148;2023-08-08T00:58:06;9.70;99.90
11304;DHT22;5707;49.588;12.148;2023-08-08T01:00:32;9.80;99.90
11304;DHT22;5707;49.588;12.148;2023-08-08T01:02:58;9.80;99.90
11304;DHT22;5707;49.588;12.148;2023-08-08T01:05:25;9.90;99.90
11304;DHT22;5707;49.588;12.148;2023-08-08T01:08:03;9.90;99.90
11304;DHT22;5707;49.588;12.148;2023-08-08T01:10:41;9.90;99.90
11304;DHT22;5707;49.588;12.148;2023-08-08T01:13:19;9.90;99.90
11304;DHT22;5707;49.588;12.148;2023-08-08T01:15:46;10.00;99.90
11304;DHT22;5707;49.588;12.148;2023-08-08T01:18:12;10.00;99.90
11304;DHT22;5707;49.588;12.148;2023-08-08T01:20:40;10.00;99.90
11304;DHT22;5707;49.588;12.148;2023-08-08T01:23:30;10.00;99.90
11304;DHT22;5707;49.588;12.148;2023-08-08T01:25:59;10.00;99.90
11304;DHT22;5707;49.588;12.148;2023-08-08T01:28:25;10.10;99.90
11304;DHT22;5707;49.588;12.148;2023-08-08T01:30:51;10.10;99.90
11304;DHT22;5707;49.588;12.148;2023-08-08T01:33:17;10.10;99.90
11304;DHT22;5707;49.588;12.148;2023-08-08T01:36:18;10.10;99.90
11304;DHT22;5707;49.588;12.148;2023-08-08T01:38:47;10.10;99.90
11304;DHT22;5707;49.588;12.148;2023-08-08T01:41:15;10.10;99.90
11304;DHT22;5707;49.588;12.148;2023-08-08T01:43:41;10.10;99.90
11304;DHT22;5707;49.588;12.148;2023-08-08T01:46:08;10.10;99.90
11304;DHT22;5707;49.588;12.148;2023-08-08T01:48:34;10.20;99.90
11304;DHT22;5707;49.588;12.148;2023-08-08T01:51:00;10.20;99.90
11304;DHT22;5707;49.588;12.148;2023-08-08T01:53:25;10.10;99.90
11304;DHT22;5707;49.588;12.148;2023-08-08T01:55:51;10.20;99.90
11304;DHT22;5707;49.588;12.148;2023-08-08T01:58:18;10.10;99.90
11304;DHT22;5707;49.588;12.148;2023-08-08T02:00:44;10.10;99.90
11304;DHT22;5707;49.588;12.148;2023-08-08T02:03:12;10.00;99.90
11304;DHT22;5707;49.588;12.148;2023-08-08T02:05:37;10.10;99.90
11304;DHT22;5707;49.588;12.148;2023-08-08T02:08:03;10.10;99.90
11304;DHT22;5707;49.588;12.148;2023-08-08T02:10:29;10.10;99.90
11304;DHT22;5707;49.588;12.148;2023-08-08T02:12:54;10.10;99.90
11304;DHT22;5707;49.588;12.148;2023-08-08T02:15:20;10.20;99.90
11304;DHT22;5707;49.588;12.148;2023-08-08T02:17:46;10.20;99.90
11304;DHT22;5707;49.588;12.148;2023-08-08T02:20:12;10.20;99.90
11304;DHT22;5707;49.588;12.148;2023-08-08T02:22:38;10.30;99.90
11304;DHT22;5707;49.588;12.148;2023-08-08T02:25:04;10.30;99.90
11304;DHT22;5707;49.588;12.148;2023-08-08T02:27:29;10.30;99.90
11304;DHT22;5707;49.588;12.148;2023-08-08T02:29:55;10.40;99.90
11304;DHT22;5707;49.588;12.148;2023-08-08T02:32:23;10.40;99.90
11304;DHT22;5707;49.588;12.148;2023-08-08T02:34:48;10.50;99.90
11304;DHT22;5707;49.588;12.148;2023-08-08T02:37:14;10.50;99.90
11304;DHT22;5707;49.588;12.148;2023-08-08T02:39:39;10.50;99.90
11304;DHT22;5707;49.588;12.148;2023-08-08T02:42:05;10.50;99.90
11304;DHT22;5707;49.588;12.148;2023-08-08T02:44:31;10.50;99.90
11304;DHT22;5707;49.588;12.148;2023-08-08T02:46:56;10.50;99.90
11304;DHT22;5707;49.588;12.148;2023-08-08T02:49:22;10.50;99.90
11304;DHT22;5707;49.588;12.148;2023-08-08T02:51:47;10.50;99.90
11304;DHT22;5707;49.588;12.148;2023-08-08T02:54:13;10.50;99.90
11304;DHT22;5707;49.588;12.148;2023-08-08T02:56:38;10.50;99.90
11304;DHT22;5707;49.588;12.148;2023-08-08T02:59:04;10.50;99.90
11304;DHT22;5707;49.588;12.148;2023-08-08T03:01:29;10.50;99.90
11304;DHT22;5707;49.588;12.148;2023-08-08T03:03:55;10.50;99.90
11304;DHT22;5707;49.588;12.148;2023-08-08T03:06:20;10.50;99.90
11304;DHT22;5707;49.588;12.148;2023-08-08T03:08:46;10.50;99.90
11304;DHT22;5707;49.588;12.148;2023-08-08T03:11:11;10.50;99.90
11304;DHT22;5707;49.588;12.148;2023-08-08T03:13:37;10.40;99.90
11304;DHT22;5707;49.588;12.148;2023-08-08T03:16:03;10.40;99.90
11304;DHT22;5707;49.588;12.148;2023-08-08T03:18:28;10.30;99.90
11304;DHT22;5707;49.588;12.148;2023-08-08T03:20:54;10.20;99.90
11304;DHT22;5707;49.588;12.148;2023-08-08T03:23:20;10.00;99.90
11304;DHT22;5707;49.588;12.148;2023-08-08T03:25:45;9.80;99.90
11304;DHT22;5707;49.588;12.148;2023-08-08T03:28:11;9.70;99.90
11304;DHT22;5707;49.588;12.148;2023-08-08T03:30:37;9.70;99.90
11304;DHT22;5707;49.588;12.148;2023-08-08T03:33:04;9.50;99.90
11304;DHT22;5707;49.588;12.148;2023-08-08T03:35:29;9.50;99.90
11304;DHT22;5707;49.588;12.148;2023-08-08T03:37:55;9.50;99.90
11304;DHT22;5707;49.588;12.148;2023-08-08T03:40:21;9.50;99.90
11304;DHT22;5707;49.588;12.148;2023-08-08T03:42:46;9.50;99.90
11304;DHT22;5707;49.588;12.148;2023-08-08T03:45:12;9.50;99.90
11304;DHT22;5707;49.588;12.148;2023-08-08T03:47:37;9.50;99.90
11304;DHT22;5707;49.588;12.148;2023-08-08T03:50:04;9.60;99.90
11304;DHT22;5707;49.588;12.148;2023-08-08T03:52:30;9.60;99.90
11304;DHT22;5707;49.588;12.148;2023-08-08T03:54:56;9.70;99.90
11304;DHT22;5707;49.588;12.148;2023-08-08T03:57:22;9.90;99.90
11304;DHT22;5707;49.588;12.148;2023-08-08T03:59:47;10.00;99.90
11304;DHT22;5707;49.588;12.148;2023-08-08T04:02:13;10.00;99.90
11304;DHT22;5707;49.588;12.148;2023-08-08T04:04:38;10.10;99.90
11304;DHT22;5707;49.588;12.148;2023-08-08T04:07:04;10.20;99.90
11304;DHT22;5707;49.588;12.148;2023-08-08T04:09:30;10.30;99.90
11304;DHT22;5707;49.588;12.148;2023-08-08T04:11:56;10.30;99.90
11304;DHT22;5707;49.588;12.148;2023-08-08T04:14:21;10.30;99.90
11304;DHT22;5707;49.588;12.148;2023-08-08T04:16:47;10.40;99.90
11304;DHT22;5707;49.588;12.148;2023-08-08T04:19:12;10.40;99.90
11304;DHT22;5707;49.588;12.148;2023-08-08T04:21:38;10.40;99.90
11304;DHT22;5707;49.588;12.148;2023-08-08T04:24:04;10.50;99.90
11304;DHT22;5707;49.588;12.148;2023-08-08T04:26:33;10.50;99.90
11304;DHT22;5707;49.588;12.148;2023-08-08T04:28:58;10.50;99.90
11304;DHT22;5707;49.588;12.148;2023-08-08T04:31:24;10.50;99.90
11304;DHT22;5707;49.588;12.148;2023-08-08T04:33:51;10.60;99.90
11304;DHT22;5707;49.588;12.148;2023-08-08T04:36:17;10.60;99.90
11304;DHT22;5707;49.588;12.148;2023-08-08T04:38:43;10.70;99.90
11304;DHT22;5707;49.588;12.148;2023-08-08T04:41:08;10.70;99.90
11304;DHT22;5707;49.588;12.148;2023-08-08T04:43:34;10.70;99.90
11304;DHT22;5707;49.588;12.148;2023-08-08T04:45:59;10.80;99.90
11304;DHT22;5707;49.588;12.148;2023-08-08T04:48:25;10.80;99.90
11304;DHT22;5707;49.588;12.148;2023-08-08T04:50:51;10.90;99.90
11304;DHT22;5707;49.588;12.148;2023-08-08T04:53:16;11.00;99.90
11304;DHT22;5707;49.588;12.148;2023-08-08T04:55:42;11.00;99.90
11304;DHT22;5707;49.588;12.148;2023-08-08T04:58:07;11.00;99.90
11304;DHT22;5707;49.588;12.148;2023-08-08T05:00:33;11.10;99.90
11304;DHT22;5707;49.588;12.148;2023-08-08T05:02:59;11.30;99.90
11304;DHT22;5707;49.588;12.148;2023-08-08T05:05:24;11.40;99.90
11304;DHT22;5707;49.588;12.148;2023-08-08T05:07:50;11.40;99.90
11304;DHT22;5707;49.588;12.148;2023-08-08T05:10:15;11.50;99.90
11304;DHT22;5707;49.588;12.148;2023-08-08T05:12:41;11.60;99.90
11304;DHT22;5707;49.588;12.148;2023-08-08T05:15:07;11.60;99.90
11304;DHT22;5707;49.588;12.148;2023-08-08T05:17:33;11.70;99.90
11304;DHT22;5707;49.588;12.148;2023-08-08T05:19:58;11.60;99.90
11304;DHT22;5707;49.588;12.148;2023-08-08T05:22:24;11.70;99.90
11304;DHT22;5707;49.588;12.148;2023-08-08T05:24:49;11.90;99.90
11304;DHT22;5707;49.588;12.148;2023-08-08T05:27:15;12.40;99.90
11304;DHT22;5707;49.588;12.148;2023-08-08T05:29:40;12.60;99.90
11304;DHT22;5707;49.588;12.148;2023-08-08T05:32:07;12.60;99.90
11304;DHT22;5707;49.588;12.148;2023-08-08T05:34:34;12.70;99.90
11304;DHT22;5707;49.588;12.148;2023-08-08T05:36:59;12.60;99.90
11304;DHT22;5707;49.588;12.148;2023-08-08T05:39:25;12.60;99.90
11304;DHT22;5707;49.588;12.148;2023-08-08T05:41:50;12.80;99.90
11304;DHT22;5707;49.588;12.148;2023-08-08T05:44:16;13.00;99.90
11304;DHT22;5707;49.588;12.148;2023-08-08T05:46:42;13.10;99.90
11304;DHT22;5707;49.588;12.148;2023-08-08T05:49:07;13.10;99.90
11304;DHT22;5707;49.588;12.148;2023-08-08T05:51:33;13.20;99.90
11304;DHT22;5707;49.588;12.148;2023-08-08T05:53:58;13.20;99.90
11304;DHT22;5707;49.588;12.148;2023-08-08T05:56:24;13.30;99.90
11304;DHT22;5707;49.588;12.148;2023-08-08T05:58:49;13.30;99.90
11304;DHT22;5707;49.588;12.148;2023-08-08T06:01:15;13.50;99.90
11304;DHT22;5707;49.588;12.148;2023-08-08T06:03:40;13.50;99.90
11304;DHT22;5707;49.588;12.148;2023-08-08T06:06:07;13.50;99.90
11304;DHT22;5707;49.588;12.148;2023-08-08T06:08:33;13.70;99.90
11304;DHT22;5707;49.588;12.148;2023-08-08T06:10:59;13.70;99.90
11304;DHT22;5707;49.588;12.148;2023-08-08T06:13:24;13.80;99.90
11304;DHT22;5707;49.588;12.148;2023-08-08T06:15:50;14.00;99.90
11304;DHT22;5707;49.588;12.148;2023-08-08T06:18:16;14.20;99.90
11304;DHT22;5707;49.588;12.148;2023-08-08T06:20:42;14.50;99.90
11304;DHT22;5707;49.588;12.148;2023-08-08T06:23:08;14.80;99.90
11304;DHT22;5707;49.588;12.148;2023-08-08T06:25:33;14.80;99.90
11304;DHT22;5707;49.588;12.148;2023-08-08T06:27:59;14.90;99.90
11304;DHT22;5707;49.588;12.148;2023-08-08T06:30:24;14.80;99.90
11304;DHT22;5707;49.588;12.148;2023-08-08T06:32:50;14.90;99.90
11304;DHT22;5707;49.588;12.148;2023-08-08T06:35:16;14.90;99.90
11304;DHT22;5707;49.588;12.148;2023-08-08T06:37:42;14.90;99.90
11304;DHT22;5707;49.588;12.148;2023-08-08T06:40:09;15.00;99.90
11304;DHT22;5707;49.588;12.148;2023-08-08T06:42:36;15.00;99.90
11304;DHT22;5707;49.588;12.148;2023-08-08T06:45:02;15.10;99.90
11304;DHT22;5707;49.588;12.148;2023-08-08T06:47:27;15.20;99.90
11304;DHT22;5707;49.588;12.148;2023-08-08T06:49:53;15.40;99.90
11304;DHT22;5707;49.588;12.148;2023-08-08T06:52:18;15.40;99.90
11304;DHT22;5707;49.588;12.148;2023-08-08T06:54:44;15.50;99.90
11304;DHT22;5707;49.588;12.148;2023-08-08T06:57:10;15.60;99.90
11304;DHT22;5707;49.588;12.148;2023-08-08T06:59:35;15.50;99.90
11304;DHT22;5707;49.588;12.148;2023-08-08T07:02:01;15.60;99.90
11304;DHT22;5707;49.588;12.148;2023-08-08T07:04:26;15.80;99.90
11304;DHT22;5707;49.588;12.148;2023-08-08T07:06:52;15.90;99.90
11304;DHT22;5707;49.588;12.148;2023-08-08T07:09:17;16.00;99.90
11304;DHT22;5707;49.588;12.148;2023-08-08T07:11:43;16.10;99.90
11304;DHT22;5707;49.588;12.148;2023-08-08T07:14:09;16.20;99.90
11304;DHT22;5707;49.588;12.148;2023-08-08T07:16:34;16.30;99.90
11304;DHT22;5707;49.588;12.148;2023-08-08T07:19:00;16.30;99.90
11304;DHT22;5707;49.588;12.148;2023-08-08T07:21:25;16.50;99.90
11304;DHT22;5707;49.588;12.148;2023-08-08T07:23:51;16.60;99.90
11304;DHT22;5707;49.588;12.148;2023-08-08T07:26:17;16.80;99.90
11304;DHT22;5707;49.588;12.148;2023-08-08T07:28:43;17.00;99.90
11304;DHT22;5707;49.588;12.148;2023-08-08T07:31:08;17.00;99.90
11304;DHT22;5707;49.588;12.148;2023-08-08T07:33:34;17.10;99.90
11304;DHT22;5707;49.588;12.148;2023-08-08T07:35:59;17.30;99.90
11304;DHT22;5707;49.588;12.148;2023-08-08T07:38:25;17.30;99.90
11304;DHT22;5707;49.588;12.148;2023-08-08T07:40:50;17.20;99.90
11304;DHT22;5707;49.588;12.148;2023-08-08T07:43:16;17.20;99.90
11304;DHT22;5707;49.588;12.148;2023-08-08T07:45:42;17.20;99.90
11304;DHT22;5707;49.588;12.148;2023-08-08T07:48:08;17.30;99.90
11304;DHT22;5707;49.588;12.148;2023-08-08T07:50:33;17.30;99.90
11304;DHT22;5707;49.588;12.148;2023-08-08T07:52:59;17.20;99.90
11304;DHT22;5707;49.588;12.148;2023-08-08T07:55:24;17.20;99.90
11304;DHT22;5707;49.588;12.148;2023-08-08T07:57:50;17.40;99.90
11304;DHT22;5707;49.588;12.148;2023-08-08T08:00:16;17.60;99.90
11304;DHT22;5707;49.588;12.148;2023-08-08T08:02:44;17.70;99.90
11304;DHT22;5707;49.588;12.148;2023-08-08T08:05:10;18.00;99.90
11304;DHT22;5707;49.588;12.148;2023-08-08T08:07:36;18.10;99.90
11304;DHT22;5707;49.588;12.148;2023-08-08T08:10:03;18.00;99.90
11304;DHT22;5707;49.588;12.148;2023-08-08T08:12:30;17.80;99.90
11304;DHT22;5707;49.588;12.148;2023-08-08T08:14:56;17.60;99.90
11304;DHT22;5707;49.588;12.148;2023-08-08T08:17:21;17.50;99.90
11304;DHT22;5707;49.588;12.148;2023-08-08T08:19:47;17.60;99.90
11304;DHT22;5707;49.588;12.148;2023-08-08T08:22:12;17.70;99.90
11304;DHT22;5707;49.588;12.148;2023-08-08T08:24:38;17.70;99.90
11304;DHT22;5707;49.588;12.148;2023-08-08T08:27:04;17.70;99.90
11304;DHT22;5707;49.588;12.148;2023-08-08T08:29:29;17.90;99.90
11304;DHT22;5707;49.588;12.148;2023-08-08T08:31:56;18.10;99.90
11304;DHT22;5707;49.588;12.148;2023-08-08T08:34:22;18.30;99.90
11304;DHT22;5707;49.588;12.148;2023-08-08T08:36:47;18.20;99.90
11304;DHT22;5707;49.588;12.148;2023-08-08T08:39:13;18.50;99.90
11304;DHT22;5707;49.588;12.148;2023-08-08T08:41:39;18.70;99.90
11304;DHT22;5707;49.588;12.148;2023-08-08T08:44:05;18.90;99.90
11304;DHT22;5707;49.588;12.148;2023-08-08T08:46:32;19.00;99.90
11304;DHT22;5707;49.588;12.148;2023-08-08T08:49:02;19.10;99.90
11304;DHT22;5707;49.588;12.148;2023-08-08T08:51:30;19.30;99.90
11304;DHT22;5707;49.588;12.148;2023-08-08T08:53:58;19.40;99.90
11304;DHT22;5707;49.588;12.148;2023-08-08T08:56:24;19.40;99.90
11304;DHT22;5707;49.588;12.148;2023-08-08T08:58:51;19.60;98.50
11304;DHT22;5707;49.588;12.148;2023-08-08T09:01:16;20.00;99.20
11304;DHT22;5707;49.588;12.148;2023-08-08T09:03:44;20.20;99.90
11304;DHT22;5707;49.588;12.148;2023-08-08T09:06:11;20.30;96.90
11304;DHT22;5707;49.588;12.148;2023-08-08T09:08:37;20.40;99.60
11304;DHT22;5707;49.588;12.148;2023-08-08T09:11:03;20.60;93.70
11304;DHT22;5707;49.588;12.148;2023-08-08T09:13:36;20.70;93.80
11304;DHT22;5707;49.588;12.148;2023-08-08T09:16:05;20.50;93.20
11304;DHT22;5707;49.588;12.148;2023-08-08T09:18:32;20.50;93.10
11304;DHT22;5707;49.588;12.148;2023-08-08T09:20:58;20.40;90.70
11304;DHT22;5707;49.588;12.148;2023-08-08T09:23:24;20.60;92.00
11304;DHT22;5707;49.588;12.148;2023-08-08T09:25:50;20.90;92.70
11304;DHT22;5707;49.588;12.148;2023-08-08T09:28:15;20.90;94.00
11304;DHT22;5707;49.588;12.148;2023-08-08T09:30:42;20.70;82.70
11304;DHT22;5707;49.588;12.148;2023-08-08T09:33:08;19.90;92.90
11304;DHT22;5707;49.588;12.148;2023-08-08T09:35:38;19.50;91.50
11304;DHT22;5707;49.588;12.148;2023-08-08T09:38:03;19.20;93.30
11304;DHT22;5707;49.588;12.148;2023-08-08T09:40:30;19.20;96.10
11304;DHT22;5707;49.588;12.148;2023-08-08T09:42:56;19.50;99.90
11304;DHT22;5707;49.588;12.148;2023-08-08T09:45:22;20.00;99.90
11304;DHT22;5707;49.588;12.148;2023-08-08T09:47:50;20.50;90.10
11304;DHT22;5707;49.588;12.148;2023-08-08T09:50:16;20.90;85.70
11304;DHT22;5707;49.588;12.148;2023-08-08T09:52:42;21.30;76.20
11304;DHT22;5707;49.588;12.148;2023-08-08T09:55:08;21.50;65.60
11304;DHT22;5707;49.588;12.148;2023-08-08T09:57:38;21.70;62.50
11304;DHT22;5707;49.588;12.148;2023-08-08T10:00:04;21.80;57.50
11304;DHT22;5707;49.588;12.148;2023-08-08T10:02:34;21.70;53.30
11304;DHT22;5707;49.588;12.148;2023-08-08T10:05:02;21.30;52.00
11304;DHT22;5707;49.588;12.148;2023-08-08T10:07:29;21.40;56.50
11304;DHT22;5707;49.588;12.148;2023-08-08T10:09:56;21.80;55.90
11304;DHT22;5707;49.588;12.148;2023-08-08T10:12:23;22.10;51.20
11304;DHT22;5707;49.588;12.148;2023-08-08T10:14:49;22.20;52.00
11304;DHT22;5707;49.588;12.148;2023-08-08T10:17:15;22.30;47.20
11304;DHT22;5707;49.588;12.148;2023-08-08T10:19:53;22.20;51.00
11304;DHT22;5707;49.588;12.148;2023-08-08T10:22:24;22.20;48.20
11304;DHT22;5707;49.588;12.148;2023-08-08T10:24:54;22.20;43.30
11304;DHT22;5707;49.588;12.148;2023-08-08T10:27:34;22.00;45.20
11304;DHT22;5707;49.588;12.148;2023-08-08T10:30:07;21.90;45.20
11304;DHT22;5707;49.588;12.148;2023-08-08T10:32:43;21.70;52.20
11304;DHT22;5707;49.588;12.148;2023-08-08T10:35:09;21.80;48.10
11304;DHT22;5707;49.588;12.148;2023-08-08T10:37:37;22.00;46.70
11304;DHT22;5707;49.588;12.148;2023-08-08T10:40:03;22.20;49.60
11304;DHT22;5707;49.588;12.148;2023-08-08T10:42:31;22.70;42.70
11304;DHT22;5707;49.588;12.148;2023-08-08T10:45:01;23.30;45.00
11304;DHT22;5707;49.588;12.148;2023-08-08T10:47:36;23.10;45.50
11304;DHT22;5707;49.588;12.148;2023-08-08T10:50:13;22.40;41.60
11304;DHT22;5707;49.588;12.148;2023-08-08T10:52:59;21.60;45.10
11304;DHT22;5707;49.588;12.148;2023-08-08T10:55:35;21.50;48.30
11304;DHT22;5707;49.588;12.148;2023-08-08T10:58:13;21.50;45.50
11304;DHT22;5707;49.588;12.148;2023-08-08T11:00:45;21.70;47.10
11304;DHT22;5707;49.588;12.148;2023-08-08T11:03:10;22.00;44.80
11304;DHT22;5707;49.588;12.148;2023-08-08T11:05:37;21.90;42.50
11304;DHT22;5707;49.588;12.148;2023-08-08T11:08:05;22.00;45.70
11304;DHT22;5707;49.588;12.148;2023-08-08T11:10:39;22.10;40.80
11304;DHT22;5707;49.588;12.148;2023-08-08T11:13:05;22.30;37.60
11304;DHT22;5707;49.588;12.148;2023-08-08T11:15:33;22.50;36.10
11304;DHT22;5707;49.588;12.148;2023-08-08T11:18:00;22.70;34.20
11304;DHT22;5707;49.588;12.148;2023-08-08T11:20:30;23.00;35.20
11304;DHT22;5707;49.588;12.148;2023-08-08T11:22:57;23.10;32.80
11304;DHT22;5707;49.588;12.148;2023-08-08T11:25:25;23.30;29.20
11304;DHT22;5707;49.588;12.148;2023-08-08T11:27:52;23.50;29.90
11304;DHT22;5707;49.588;12.148;2023-08-08T11:30:18;23.40;27.90
11304;DHT22;5707;49.588;12.148;2023-08-08T11:32:48;23.70;32.50
11304;DHT22;5707;49.588;12.148;2023-08-08T11:35:23;24.00;31.50
11304;DHT22;5707;49.588;12.148;2023-08-08T11:37:54;24.50;31.30
11304;DHT22;5707;49.588;12.148;2023-08-08T11:40:22;25.00;26.30
11304;DHT22;5707;49.588;12.148;2023-08-08T11:42:49;25.10;27.40
11304;DHT22;5707;49.588;12.148;2023-08-08T11:45:16;24.80;22.10
11304;DHT22;5707;49.588;12.148;2023-08-08T11:47:42;24.40;24.10
11304;DHT22;5707;49.588;12.148;2023-08-08T11:50:09;24.40;26.60
11304;DHT22;5707;49.588;12.148;2023-08-08T11:52:39;24.40;22.60
11304;DHT22;5707;49.588;12.148;2023-08-08T11:55:06;24.20;22.70
11304;DHT22;5707;49.588;12.148;2023-08-08T11:57:33;24.20;19.90
11304;DHT22;5707;49.588;12.148;2023-08-08T11:59:59;24.30;22.80
11304;DHT22;5707;49.588;12.148;2023-08-08T12:02:26;24.50;20.00
11304;DHT22;5707;49.588;12.148;2023-08-08T12:04:52;24.30;20.60
11304;DHT22;5707;49.588;12.148;2023-08-08T12:07:18;24.40;20.40
11304;DHT22;5707;49.588;12.148;2023-08-08T12:09:47;24.50;21.30
11304;DHT22;5707;49.588;12.148;2023-08-08T12:12:13;24.50;19.10
11304;DHT22;5707;49.588;12.148;2023-08-08T12:14:39;24.60;22.00
11304;DHT22;5707;49.588;12.148;2023-08-08T12:17:05;24.90;22.50
11304;DHT22;5707;49.588;12.148;2023-08-08T12:19:31;25.20;18.50
11304;DHT22;5707;49.588;12.148;2023-08-08T12:21:56;24.90;18.50
11304;DHT22;5707;49.588;12.148;2023-08-08T12:24:22;24.50;19.60
11304;DHT22;5707;49.588;12.148;2023-08-08T12:26:47;24.20;22.20
11304;DHT22;5707;49.588;12.148;2023-08-08T12:29:13;24.20;20.50
11304;DHT22;5707;49.588;12.148;2023-08-08T12:31:39;24.20;23.30
11304;DHT22;5707;49.588;12.148;2023-08-08T12:34:05;24.50;21.00
11304;DHT22;5707;49.588;12.148;2023-08-08T12:36:30;24.60;19.10
11304;DHT22;5707;49.588;12.148;2023-08-08T12:38:56;24.40;21.50
11304;DHT22;5707;49.588;12.148;2023-08-08T12:41:25;24.70;16.30
11304;DHT22;5707;49.588;12.148;2023-08-08T12:43:51;24.50;18.50
11304;DHT22;5707;49.588;12.148;2023-08-08T12:46:17;24.40;19.00
11304;DHT22;5707;49.588;12.148;2023-08-08T12:48:42;24.60;17.20
11304;DHT22;5707;49.588;12.148;2023-08-08T12:51:11;24.60;19.30
11304;DHT22;5707;49.588;12.148;2023-08-08T12:53:36;25.20;20.90
11304;DHT22;5707;49.588;12.148;2023-08-08T12:56:02;25.30;17.90
11304;DHT22;5707;49.588;12.148;2023-08-08T12:58:28;25.50;20.00
11304;DHT22;5707;49.588;12.148;2023-08-08T13:00:54;25.40;15.90
11304;DHT22;5707;49.588;12.148;2023-08-08T13:03:19;25.20;15.70
11304;DHT22;5707;49.588;12.148;2023-08-08T13:05:46;25.10;18.20
11304;DHT22;5707;49.588;12.148;2023-08-08T13:08:12;25.30;19.00
11304;DHT22;5707;49.588;12.148;2023-08-08T13:10:39;25.40;16.70
11304;DHT22;5707;49.588;12.148;2023-08-08T13:13:04;25.40;14.50
11304;DHT22;5707;49.588;12.148;2023-08-08T13:15:30;25.40;14.20
11304;DHT22;5707;49.588;12.148;2023-08-08T13:17:55;25.50;16.00
11304;DHT22;5707;49.588;12.148;2023-08-08T13:20:21;25.90;17.70
11304;DHT22;5707;49.588;12.148;2023-08-08T13:22:47;26.10;13.90
11304;DHT22;5707;49.588;12.148;2023-08-08T13:25:13;26.20;15.20
11304;DHT22;5707;49.588;12.148;2023-08-08T13:27:38;26.20;14.90
11304;DHT22;5707;49.588;12.148;2023-08-08T13:30:05;26.10;15.70
11304;DHT22;5707;49.588;12.148;2023-08-08T13:32:30;26.10;13.90
11304;DHT22;5707;49.588;12.148;2023-08-08T13:34:56;25.90;12.10
11304;DHT22;5707;49.588;12.148;2023-08-08T13:37:22;25.40;11.90
11304;DHT22;5707;49.588;12.148;2023-08-08T13:39:47;25.00;15.60
11304;DHT22;5707;49.588;12.148;2023-08-08T13:42:13;24.80;14.90
11304;DHT22;5707;49.588;12.148;2023-08-08T13:44:38;24.90;14.70
11304;DHT22;5707;49.588;12.148;2023-08-08T13:47:04;25.10;16.00
11304;DHT22;5707;49.588;12.148;2023-08-08T13:49:30;25.30;16.80
11304;DHT22;5707;49.588;12.148;2023-08-08T13:51:55;25.50;11.90
11304;DHT22;5707;49.588;12.148;2023-08-08T13:54:21;25.50;11.70
11304;DHT22;5707;49.588;12.148;2023-08-08T13:56:46;25.40;11.50
11304;DHT22;5707;49.588;12.148;2023-08-08T13:59:12;25.10;12.00
11304;DHT22;5707;49.588;12.148;2023-08-08T14:01:37;25.20;10.70
11304;DHT22;5707;49.588;12.148;2023-08-08T14:04:03;24.80;11.10
11304;DHT22;5707;49.588;12.148;2023-08-08T14:06:29;24.70;11.60
11304;DHT22;5707;49.588;12.148;2023-08-08T14:08:56;24.40;12.20
11304;DHT22;5707;49.588;12.148;2023-08-08T14:11:21;24.30;11.60
11304;DHT22;5707;49.588;12.148;2023-08-08T14:13:47;24.20;14.00
11304;DHT22;5707;49.588;12.148;2023-08-08T14:16:13;24.50;10.70
11304;DHT22;5707;49.588;12.148;2023-08-08T14:18:38;24.20;12.00
11304;DHT22;5707;49.588;12.148;2023-08-08T14:21:04;24.30;12.00
11304;DHT22;5707;49.588;12.148;2023-08-08T14:23:30;24.50;10.60
11304;DHT22;5707;49.588;12.148;2023-08-08T14:25:56;24.40;12.80
11304;DHT22;5707;49.588;12.148;2023-08-08T14:28:22;24.50;12.30
11304;DHT22;5707;49.588;12.148;2023-08-08T14:30:47;24.60;11.70
11304;DHT22;5707;49.588;12.148;2023-08-08T14:33:14;24.60;13.20
11304;DHT22;5707;49.588;12.148;2023-08-08T14:35:40;24.40;12.80
11304;DHT22;5707;49.588;12.148;2023-08-08T14:38:06;24.50;11.10
11304;DHT22;5707;49.588;12.148;2023-08-08T14:40:32;24.60;14.00
11304;DHT22;5707;49.588;12.148;2023-08-08T14:43:00;24.40;12.20
11304;DHT22;5707;49.588;12.148;2023-08-08T14:45:26;24.40;13.40
11304;DHT22;5707;49.588;12.148;2023-08-08T14:47:52;24.90;14.80
11304;DHT22;5707;49.588;12.148;2023-08-08T14:50:18;25.10;10.80
11304;DHT22;5707;49.588;12.148;2023-08-08T14:52:44;25.00;11.30
11304;DHT22;5707;49.588;12.148;2023-08-08T14:55:09;24.80;10.70
11304;DHT22;5707;49.588;12.148;2023-08-08T14:57:35;24.60;10.90
11304;DHT22;5707;49.588;12.148;2023-08-08T15:00:01;24.30;10.60
11304;DHT22;5707;49.588;12.148;2023-08-08T15:02:26;24.30;12.40
11304;DHT22;5707;49.588;12.148;2023-08-08T15:04:52;24.50;11.40
11304;DHT22;5707;49.588;12.148;2023-08-08T15:07:18;24.70;10.40
11304;DHT22;5707;49.588;12.148;2023-08-08T15:09:44;24.60;11.20
11304;DHT22;5707;49.588;12.148;2023-08-08T15:12:10;24.70;13.90
11304;DHT22;5707;49.588;12.148;2023-08-08T15:14:36;25.00;12.70
11304;DHT22;5707;49.588;12.148;2023-08-08T15:17:02;25.30;11.20
11304;DHT22;5707;49.588;12.148;2023-08-08T15:19:27;25.00;10.20
11304;DHT22;5707;49.588;12.148;2023-08-08T15:21:54;24.80;12.40
11304;DHT22;5707;49.588;12.148;2023-08-08T15:24:20;24.90;15.40
11304;DHT22;5707;49.588;12.148;2023-08-08T15:26:45;24.70;12.40
11304;DHT22;5707;49.588;12.148;2023-08-08T15:29:11;23.90;12.10